Decoded Metar for LDPL (PULA in CROATIA) (IATA:PUY) | Meteo·Mobile Aviation Weather
aviador You're here:

LDPL Decoded Metar

PULA in CROATIA
Report Time2019-08-19 04:00:00
UTC Time2019-08-19 04:19:42
Flight Rules vfr VFR
Wind060° at 03 kt
W.Decomp.*RWY 09: 2.5 kt HW 1.6 kt LCW
Visibility9999 m
Phenomena:N/A
Clouds:N/A
Expected CloudBase > 2,000 ft AGL from Temp-Dew spread
CeilingNone
Temp19°C (ISA +4)
Dew Point14°C (73% RH)
QNH1015 hPa
Density Alt869 ft
Elevation207 ft
Report Wrong Elevation
Raw Report
LDPL 190400Z 06003KT CAVOK 19/14 Q1015 NOSIG=

Extra information for LDPL:More info

Metar Taf Metar & Taf Last 4 Metars F.Rules Stats Wind Profile Meteogram Temp Stats Airport Information Weather charts Add Link Nearby VenuesMetar ALERT Operation Metar Decoded Social comments